Time;durP1;ratioP1;P1;durP2;ratioP2;P2;SDS_P1;SDS_P2;PMS_P1;PMS_P2;Temp;Humidity;BMP_temperature;BMP_pressure;BME280_temperature;BME280_humidity;BME280_pressure;Samples;Min_cycle;Max_cycle;Signal;HPM_P1;HPM_P2
2021/08/06 00:01:03;;;;;;;20.20;18.02;;;16.30;93.00;;;;;;5003511;28;20053;-48
2021/08/06 00:03:29;;;;;;;19.33;17.23;;;16.40;93.40;;;;;;4993749;28;20533;-51
2021/08/06 00:05:55;;;;;;;19.50;17.10;;;16.30;93.10;;;;;;4998529;28;20073;-49
2021/08/06 00:08:22;;;;;;;18.83;16.90;;;16.30;93.20;;;;;;4992017;28;20046;-49
2021/08/06 00:10:47;;;;;;;18.55;16.42;;;16.30;93.30;;;;;;4994596;28;20050;-48
2021/08/06 00:13:13;;;;;;;19.35;17.23;;;16.30;93.20;;;;;;4996767;28;20074;-48
2021/08/06 00:15:39;;;;;;;18.98;16.92;;;16.20;93.20;;;;;;5005441;28;20046;-48
2021/08/06 00:18:04;;;;;;;18.77;16.85;;;16.20;93.30;;;;;;4995389;28;20038;-47
2021/08/06 00:20:30;;;;;;;19.42;17.25;;;16.30;93.40;;;;;;5001046;28;20038;-50
2021/08/06 00:22:56;;;;;;;18.92;16.92;;;16.20;93.10;;;;;;5009770;28;20038;-51
2021/08/06 00:25:23;;;;;;;20.27;16.83;;;16.20;93.30;;;;;;5006782;28;20049;-49
2021/08/06 00:27:48;;;;;;;18.67;16.60;;;16.20;93.40;;;;;;4993026;28;20045;-51
2021/08/06 00:30:14;;;;;;;21.35;17.80;;;16.10;93.30;;;;;;5010586;28;20054;-51
2021/08/06 00:32:40;;;;;;;19.55;17.17;;;16.10;93.50;;;;;;4999657;28;20038;-48
2021/08/06 00:35:06;;;;;;;19.10;17.02;;;16.10;93.50;;;;;;4996944;28;20053;-54
2021/08/06 00:37:33;;;;;;;20.10;17.35;;;16.10;93.50;;;;;;4969339;28;20065;-48
2021/08/06 00:39:59;;;;;;;18.20;15.90;;;16.10;93.60;;;;;;5005887;28;20070;-48
2021/08/06 00:42:24;;;;;;;20.73;16.73;;;16.10;93.60;;;;;;5003689;28;20088;-48
2021/08/06 00:44:50;;;;;;;18.75;16.75;;;16.10;93.50;;;;;;5009648;28;20042;-48
2021/08/06 00:47:16;;;;;;;19.08;17.08;;;16.10;93.60;;;;;;5001698;28;20070;-48
2021/08/06 00:49:44;;;;;;;20.13;16.60;;;16.10;93.60;;;;;;5012928;28;20089;-51
2021/08/06 00:52:11;;;;;;;18.90;16.02;;;16.20;93.60;;;;;;4982582;28;20442;-53
2021/08/06 00:54:37;;;;;;;17.55;15.65;;;16.20;93.50;;;;;;4993842;28;20046;-51
2021/08/06 00:57:03;;;;;;;19.17;15.82;;;16.30;93.40;;;;;;4989081;28;20046;-50
2021/08/06 00:59:29;;;;;;;18.80;16.05;;;16.30;93.40;;;;;;5010184;28;20098;-48
2021/08/06 01:02:11;;;;;;;18.60;16.13;;;16.30;93.30;;;;;;5013387;28;20064;-49
2021/08/06 01:05:09;;;;;;;18.25;16.35;;;16.30;93.20;;;;;;5012690;28;20367;-49
2021/08/06 01:07:50;;;;;;;17.10;15.30;;;16.40;92.90;;;;;;4952847;28;20116;-49
2021/08/06 01:10:20;;;;;;;19.33;16.75;;;16.40;93.20;;;;;;4999848;28;20057;-48
2021/08/06 01:13:06;;;;;;;17.08;15.20;;;16.40;92.90;;;;;;4961147;28;20032;-48
2021/08/06 01:15:32;;;;;;;19.15;16.15;;;16.40;93.00;;;;;;4997878;28;20049;-48
2021/08/06 01:18:01;;;;;;;26.95;16.67;;;16.40;93.00;;;;;;4995751;28;20049;-48
2021/08/06 01:20:33;;;;;;;17.90;15.52;;;16.40;93.00;;;;;;5000917;28;20042;-47
2021/08/06 01:23:22;;;;;;;18.00;16.10;;;16.40;93.00;;;;;;5003647;28;20046;-48
2021/08/06 01:25:52;;;;;;;19.38;16.45;;;16.40;93.00;;;;;;5012475;28;20037;-48
2021/08/06 01:28:21;;;;;;;18.58;15.93;;;16.40;93.00;;;;;;5004165;28;20050;-47
2021/08/06 01:30:48;;;;;;;20.67;16.08;;;16.40;93.00;;;;;;4978912;28;20490;-48
2021/08/06 01:33:15;;;;;;;18.05;16.08;;;16.40;93.10;;;;;;5006655;28;20080;-53
2021/08/06 01:35:41;;;;;;;19.00;16.05;;;16.40;93.10;;;;;;5003442;28;20514;-48
2021/08/06 01:38:07;;;;;;;19.17;15.20;;;16.40;93.10;;;;;;4999946;28;20414;-49
2021/08/06 01:40:46;;;;;;;18.38;16.17;;;16.50;93.20;;;;;;5010357;28;20133;-51
2021/08/06 01:43:28;;;;;;;18.58;15.43;;;16.50;93.20;;;;;;5014234;28;20088;-48
2021/08/06 01:46:12;;;;;;;17.38;15.57;;;16.50;93.10;;;;;;5014186;28;20050;-49
2021/08/06 01:48:40;;;;;;;17.52;14.85;;;16.50;93.20;;;;;;4979269;28;20043;-48
2021/08/06 01:51:08;;;;;;;17.88;16.00;;;16.50;93.10;;;;;;4992644;28;20487;-47
2021/08/06 01:53:40;;;;;;;17.67;15.77;;;16.50;93.20;;;;;;5015246;28;20038;-51
2021/08/06 01:56:08;;;;;;;17.50;15.60;;;16.50;93.10;;;;;;5012425;28;20081;-48
2021/08/06 01:58:36;;;;;;;16.92;15.07;;;16.50;93.00;;;;;;5000242;28;20561;-51
2021/08/06 02:01:03;;;;;;;16.98;15.20;;;16.50;93.10;;;;;;5005603;28;20110;-49
2021/08/06 02:03:32;;;;;;;18.42;15.25;;;16.50;93.10;;;;;;4990206;28;20042;-48
2021/08/06 02:05:58;;;;;;;19.00;15.07;;;16.50;93.10;;;;;;4980408;28;20107;-50
2021/08/06 02:08:23;;;;;;;18.23;16.05;;;16.50;93.10;;;;;;5009005;28;20038;-48
2021/08/06 02:10:49;;;;;;;18.52;15.20;;;16.60;93.10;;;;;;5012731;28;20042;-48
2021/08/06 02:13:15;;;;;;;17.50;14.90;;;16.60;93.10;;;;;;5008170;28;20471;-51
2021/08/06 02:15:47;;;;;;;16.80;15.00;;;16.60;93.00;;;;;;4954343;28;20062;-51
2021/08/06 02:18:16;;;;;;;17.20;15.27;;;16.60;92.80;;;;;;4982771;28;20129;-51
2021/08/06 02:20:42;;;;;;;16.90;13.88;;;16.60;92.90;;;;;;5002241;28;20038;-49
2021/08/06 02:23:10;;;;;;;19.10;14.75;;;16.60;92.90;;;;;;4981899;28;20027;-48
2021/08/06 02:25:38;;;;;;;17.67;14.73;;;16.60;93.00;;;;;;5008883;28;20041;-48
2021/08/06 02:28:05;;;;;;;18.40;14.50;;;16.60;92.90;;;;;;4999743;28;20157;-52
2021/08/06 02:30:31;;;;;;;16.77;14.65;;;16.70;92.80;;;;;;5013488;28;20506;-54
2021/08/06 02:32:58;;;;;;;20.63;14.48;;;16.60;92.80;;;;;;4995406;28;20113;-52
2021/08/06 02:35:24;;;;;;;18.20;14.10;;;16.70;93.00;;;;;;5007097;28;20418;-49
2021/08/06 02:37:50;;;;;;;16.40;14.57;;;16.70;92.80;;;;;;5003730;28;20046;-55
2021/08/06 02:40:17;;;;;;;17.08;14.15;;;16.60;92.80;;;;;;4980061;28;20042;-52
2021/08/06 02:42:43;;;;;;;16.25;13.95;;;16.60;93.00;;;;;;4985151;28;20045;-54
2021/08/06 02:45:10;;;;;;;15.75;14.02;;;16.60;92.80;;;;;;5011653;28;20050;-47
2021/08/06 02:47:36;;;;;;;17.50;15.20;;;16.60;92.80;;;;;;4992882;28;20057;-50
2021/08/06 02:50:03;;;;;;;15.93;14.23;;;16.60;93.00;;;;;;5009043;28;20049;-48
2021/08/06 02:52:28;;;;;;;15.25;13.55;;;16.60;93.00;;;;;;5005648;28;20046;-49
2021/08/06 02:54:54;;;;;;;17.13;14.05;;;16.50;92.90;;;;;;4998872;28;20038;-48
2021/08/06 02:57:20;;;;;;;14.50;12.90;;;16.60;93.10;;;;;;5001636;28;20518;-53
2021/08/06 02:59:46;;;;;;;17.35;13.27;;;16.60;93.10;;;;;;4979383;28;20491;-52
2021/08/06 03:02:11;;;;;;;14.90;13.20;;;16.60;93.00;;;;;;5012070;28;20040;-51
2021/08/06 03:04:37;;;;;;;15.85;12.90;;;16.60;93.10;;;;;;5002920;28;20169;-54
2021/08/06 03:07:03;;;;;;;14.80;13.07;;;16.60;93.10;;;;;;4988741;28;20052;-54
2021/08/06 03:09:29;;;;;;;15.57;13.13;;;16.60;93.10;;;;;;5009806;28;20057;-54
2021/08/06 03:11:55;;;;;;;20.88;12.98;;;16.50;93.10;;;;;;5013783;28;20548;-54
2021/08/06 03:14:21;;;;;;;15.95;13.38;;;16.60;93.20;;;;;;5015447;28;20042;-49
2021/08/06 03:16:46;;;;;;;14.75;13.10;;;16.60;93.20;;;;;;5014714;28;20045;-52
2021/08/06 03:19:12;;;;;;;14.70;12.85;;;16.60;93.30;;;;;;5003428;28;20054;-50
2021/08/06 03:21:38;;;;;;;15.85;12.73;;;16.60;93.20;;;;;;4960669;28;20046;-48
2021/08/06 03:24:05;;;;;;;14.63;13.07;;;16.60;93.30;;;;;;4992030;28;20049;-53
2021/08/06 03:26:30;;;;;;;15.10;12.40;;;16.70;93.20;;;;;;5002335;28;20066;-52
2021/08/06 03:28:56;;;;;;;14.23;12.73;;;16.60;93.30;;;;;;5009877;28;20104;-51
2021/08/06 03:31:22;;;;;;;17.33;13.02;;;16.60;93.30;;;;;;5000560;28;20680;-54
2021/08/06 03:33:48;;;;;;;13.55;12.10;;;16.60;93.40;;;;;;4975570;28;20060;-54
2021/08/06 03:36:14;;;;;;;18.27;13.23;;;16.60;93.50;;;;;;5002631;28;20045;-53
2021/08/06 03:38:40;;;;;;;15.73;12.98;;;16.60;93.50;;;;;;5009538;28;20329;-48
2021/08/06 03:41:06;;;;;;;18.23;12.73;;;16.60;93.40;;;;;;5002804;28;20047;-52
2021/08/06 03:43:31;;;;;;;20.15;13.93;;;16.60;93.40;;;;;;4991293;28;20053;-51
2021/08/06 03:45:57;;;;;;;15.50;12.13;;;16.60;93.50;;;;;;4999591;28;20038;-51
2021/08/06 03:48:23;;;;;;;17.23;13.05;;;16.60;93.60;;;;;;4974231;28;20053;-51
2021/08/06 03:50:49;;;;;;;16.05;12.77;;;16.60;93.70;;;;;;5009941;28;20446;-54
2021/08/06 03:53:14;;;;;;;14.85;12.68;;;16.60;93.70;;;;;;5010764;28;20042;-51
2021/08/06 03:55:41;;;;;;;15.50;13.60;;;16.60;93.70;;;;;;5010392;28;20042;-51
2021/08/06 03:58:07;;;;;;;14.73;12.77;;;16.60;93.70;;;;;;5002762;28;20084;-51
2021/08/06 04:00:37;;;;;;;16.70;13.00;;;16.60;93.80;;;;;;4974923;28;20059;-52
2021/08/06 04:03:09;;;;;;;15.70;12.55;;;16.60;93.80;;;;;;4987365;28;20093;-51
2021/08/06 04:05:35;;;;;;;15.75;11.95;;;16.50;93.80;;;;;;4999664;28;20050;-49
2021/08/06 04:08:09;;;;;;;16.25;12.40;;;16.60;93.80;;;;;;5001835;28;20049;-50
2021/08/06 04:10:35;;;;;;;17.10;12.07;;;16.50;93.80;;;;;;4991510;28;20093;-52
2021/08/06 04:13:02;;;;;;;15.75;12.70;;;16.60;94.00;;;;;;4993003;28;20495;-51
2021/08/06 04:15:28;;;;;;;16.00;12.57;;;16.60;94.00;;;;;;4996342;28;20454;-52
2021/08/06 04:17:54;;;;;;;14.52;11.70;;;16.60;93.90;;;;;;5014674;28;20598;-52
2021/08/06 04:20:21;;;;;;;15.43;11.93;;;16.60;94.00;;;;;;4995218;28;20515;-51
2021/08/06 04:22:46;;;;;;;15.95;11.85;;;16.60;93.80;;;;;;4958565;28;1044348;-52
2021/08/06 04:25:13;;;;;;;14.93;11.82;;;16.60;94.00;;;;;;5001049;28;20100;-52
2021/08/06 04:27:40;;;;;;;16.00;12.57;;;16.70;94.10;;;;;;5011217;28;20050;-49
2021/08/06 04:30:08;;;;;;;14.23;11.35;;;16.70;94.10;;;;;;4989675;28;20045;-49
2021/08/06 04:32:37;;;;;;;13.45;10.48;;;16.60;94.00;;;;;;4969178;28;20128;-50
2021/08/06 04:35:05;;;;;;;13.73;10.45;;;16.70;94.10;;;;;;4975969;28;20042;-55
2021/08/06 04:37:30;;;;;;;14.32;10.73;;;16.70;94.20;;;;;;4996054;28;20038;-55
2021/08/06 04:39:56;;;;;;;15.38;10.05;;;16.70;94.00;;;;;;4998442;28;20035;-54
2021/08/06 04:42:23;;;;;;;12.65;9.70;;;16.80;94.10;;;;;;4989907;28;20050;-54
2021/08/06 04:44:49;;;;;;;13.00;9.68;;;16.80;94.00;;;;;;5012529;28;20034;-55
2021/08/06 04:47:15;;;;;;;12.70;10.35;;;16.90;93.80;;;;;;4974519;28;20047;-55
2021/08/06 04:49:41;;;;;;;14.13;9.90;;;16.90;93.80;;;;;;5006300;28;20444;-55
2021/08/06 04:52:08;;;;;;;12.77;9.77;;;16.90;93.80;;;;;;4996232;28;20041;-55
2021/08/06 04:54:40;;;;;;;12.63;10.10;;;17.00;93.80;;;;;;4995928;28;20395;-52
2021/08/06 04:57:05;;;;;;;12.90;10.10;;;17.00;93.90;;;;;;4994774;28;20039;-55
2021/08/06 04:59:40;;;;;;;15.27;10.10;;;17.00;93.80;;;;;;5007710;28;20049;-55
2021/08/06 05:02:05;;;;;;;11.38;9.20;;;17.00;93.80;;;;;;4995223;28;20045;-54
2021/08/06 05:04:31;;;;;;;11.75;9.70;;;17.00;93.80;;;;;;4977772;28;20438;-55
2021/08/06 05:06:57;;;;;;;12.13;9.18;;;17.00;93.90;;;;;;4994731;28;20035;-54
2021/08/06 05:09:22;;;;;;;11.25;9.27;;;17.00;93.80;;;;;;4995650;28;20096;-50
2021/08/06 05:11:48;;;;;;;11.38;8.82;;;17.10;93.90;;;;;;5001017;28;20038;-55
2021/08/06 05:14:17;;;;;;;12.18;9.15;;;17.10;93.90;;;;;;5007758;28;20513;-55
2021/08/06 05:16:43;;;;;;;13.70;9.20;;;17.10;94.00;;;;;;4992241;28;20072;-53
2021/08/06 05:19:09;;;;;;;11.73;9.18;;;17.10;93.90;;;;;;5001325;28;20069;-52
2021/08/06 05:21:34;;;;;;;12.95;9.50;;;17.10;93.80;;;;;;4978717;28;20047;-51
2021/08/06 05:24:00;;;;;;;12.00;9.00;;;17.10;93.90;;;;;;5010051;28;20137;-52
2021/08/06 05:26:30;;;;;;;13.95;8.77;;;17.10;93.90;;;;;;4996135;28;20162;-51
2021/08/06 05:28:55;;;;;;;13.90;8.95;;;17.10;93.90;;;;;;4995321;28;20042;-52
2021/08/06 05:31:22;;;;;;;11.98;8.85;;;17.10;93.90;;;;;;4994947;28;20188;-55
2021/08/06 05:33:51;;;;;;;11.88;8.43;;;17.10;94.00;;;;;;5008629;28;20042;-53
2021/08/06 05:36:17;;;;;;;10.55;8.25;;;17.20;94.00;;;;;;5005788;28;20042;-51
2021/08/06 05:38:43;;;;;;;12.88;8.38;;;17.20;94.00;;;;;;5001923;28;20161;-51
2021/08/06 05:41:10;;;;;;;12.30;8.50;;;17.20;93.90;;;;;;5003727;28;20046;-50
2021/08/06 05:43:36;;;;;;;12.13;8.48;;;17.20;94.20;;;;;;5013920;28;20060;-49
2021/08/06 05:46:02;;;;;;;10.40;8.77;;;17.20;93.80;;;;;;5012525;28;20052;-49
2021/08/06 05:48:28;;;;;;;16.00;8.80;;;17.20;93.90;;;;;;5001263;28;20482;-52
2021/08/06 05:50:55;;;;;;;11.25;7.97;;;17.20;94.00;;;;;;5008041;28;20062;-51
2021/08/06 05:53:21;;;;;;;11.27;8.38;;;17.20;94.00;;;;;;4994311;28;20125;-52
2021/08/06 05:55:47;;;;;;;10.55;7.45;;;17.20;94.20;;;;;;5005743;28;20084;-55
2021/08/06 05:58:12;;;;;;;11.23;8.30;;;17.20;94.80;;;;;;5004568;28;20058;-52
2021/08/06 06:00:38;;;;;;;10.38;7.63;;;17.10;94.70;;;;;;5009321;28;20046;-54
2021/08/06 06:03:04;;;;;;;10.65;7.25;;;17.10;95.20;;;;;;5005614;28;20030;-52
2021/08/06 06:05:36;;;;;;;11.20;8.13;;;17.10;95.20;;;;;;5003488;28;20117;-54
2021/08/06 06:08:02;;;;;;;9.77;7.90;;;17.10;95.40;;;;;;5004882;28;20136;-55
2021/08/06 06:10:28;;;;;;;11.48;8.27;;;17.10;95.70;;;;;;5013428;28;20602;-52
2021/08/06 06:12:56;;;;;;;10.38;7.82;;;17.10;95.90;;;;;;4993588;28;20052;-54
2021/08/06 06:15:23;;;;;;;13.63;7.75;;;17.10;95.80;;;;;;4996141;28;20045;-51
2021/08/06 06:17:48;;;;;;;11.93;7.88;;;17.10;95.90;;;;;;5011137;28;20692;-51
2021/08/06 06:20:16;;;;;;;9.90;7.85;;;17.10;96.00;;;;;;5012931;28;20406;-52
2021/08/06 06:22:41;;;;;;;9.77;7.82;;;17.10;96.00;;;;;;4999007;28;20092;-51
2021/08/06 06:25:08;;;;;;;10.52;7.25;;;17.10;96.10;;;;;;5012379;28;20061;-51
2021/08/06 06:27:35;;;;;;;11.45;7.72;;;17.10;96.20;;;;;;5000355;28;20411;-52
2021/08/06 06:30:01;;;;;;;10.38;7.63;;;17.00;96.20;;;;;;5011720;28;20041;-51
2021/08/06 06:32:26;;;;;;;9.57;7.43;;;17.10;96.30;;;;;;5001888;28;20426;-48
2021/08/06 06:34:52;;;;;;;10.35;7.25;;;17.10;96.30;;;;;;5009709;28;20101;-54
2021/08/06 06:37:18;;;;;;;10.52;7.55;;;17.00;96.40;;;;;;5002721;28;20054;-51
2021/08/06 06:39:43;;;;;;;16.92;8.82;;;17.10;96.50;;;;;;4993604;28;20622;-54
2021/08/06 06:42:10;;;;;;;9.70;7.22;;;17.10;96.40;;;;;;5006203;28;20403;-51
2021/08/06 06:44:35;;;;;;;11.18;7.63;;;17.10;96.80;;;;;;4993252;28;20538;-52
2021/08/06 06:47:01;;;;;;;10.95;8.05;;;17.10;97.20;;;;;;5009817;28;20117;-50
2021/08/06 06:49:26;;;;;;;9.77;7.90;;;17.10;97.00;;;;;;5000490;28;20046;-53
2021/08/06 06:51:53;;;;;;;12.27;8.20;;;17.10;97.20;;;;;;5006341;28;20080;-54
2021/08/06 06:54:21;;;;;;;10.13;7.75;;;17.00;97.10;;;;;;5001243;28;20045;-50
2021/08/06 06:56:46;;;;;;;10.70;7.68;;;17.10;97.40;;;;;;5006880;28;20038;-53
2021/08/06 06:59:12;;;;;;;9.13;7.05;;;17.10;97.40;;;;;;5011056;28;20049;-53
2021/08/06 07:01:37;;;;;;;12.13;7.38;;;17.10;97.40;;;;;;5007767;28;20049;-52
2021/08/06 07:04:03;;;;;;;10.75;7.72;;;17.10;97.60;;;;;;5005960;28;20486;-53
2021/08/06 07:06:29;;;;;;;11.40;8.35;;;17.10;97.40;;;;;;5007103;28;20038;-52
2021/08/06 07:08:55;;;;;;;10.27;7.55;;;17.10;97.60;;;;;;4985575;28;20050;-52
2021/08/06 07:11:21;;;;;;;12.23;8.23;;;17.10;97.80;;;;;;5010515;28;20029;-57
2021/08/06 07:13:47;;;;;;;11.75;8.95;;;17.10;97.80;;;;;;4999535;28;20034;-53
2021/08/06 07:16:12;;;;;;;12.77;8.38;;;17.20;98.00;;;;;;4979666;28;20451;-52
2021/08/06 07:18:38;;;;;;;13.93;8.20;;;17.20;98.10;;;;;;4992589;28;20038;-52
2021/08/06 07:21:05;;;;;;;11.65;8.70;;;17.20;98.10;;;;;;4995487;28;20112;-54
2021/08/06 07:23:30;;;;;;;11.65;8.55;;;17.20;98.20;;;;;;4993545;28;20395;-50
2021/08/06 07:25:57;;;;;;;10.73;8.05;;;17.20;98.10;;;;;;4996100;28;20045;-50
2021/08/06 07:28:23;;;;;;;12.10;8.43;;;17.20;98.30;;;;;;5001112;28;20395;-53
2021/08/06 07:30:49;;;;;;;11.52;8.68;;;17.10;98.10;;;;;;4997236;28;20053;-52
2021/08/06 07:33:15;;;;;;;13.43;9.05;;;17.10;98.10;;;;;;5000047;28;20052;-52
2021/08/06 07:35:41;;;;;;;11.70;9.40;;;17.10;98.10;;;;;;5007590;28;20052;-53
2021/08/06 07:38:06;;;;;;;12.43;9.20;;;17.10;98.10;;;;;;4998816;28;20038;-53
2021/08/06 07:40:32;;;;;;;14.07;9.52;;;17.10;98.40;;;;;;4999436;28;20046;-55
2021/08/06 07:42:58;;;;;;;11.30;8.85;;;17.10;98.30;;;;;;4998803;28;20041;-54
2021/08/06 07:45:24;;;;;;;14.35;9.73;;;17.10;98.40;;;;;;4992689;28;20041;-53
2021/08/06 07:47:51;;;;;;;13.38;8.98;;;17.10;98.40;;;;;;4996632;28;20038;-54
2021/08/06 07:50:17;;;;;;;11.98;9.15;;;17.10;98.60;;;;;;4984690;28;20125;-50
2021/08/06 07:52:43;;;;;;;12.90;9.02;;;17.10;98.60;;;;;;4997210;28;20105;-53
2021/08/06 07:55:12;;;;;;;13.48;10.18;;;17.20;98.60;;;;;;4993839;28;20042;-52
2021/08/06 07:57:39;;;;;;;12.65;9.80;;;17.10;98.50;;;;;;4990534;28;20566;-54
2021/08/06 08:00:05;;;;;;;11.88;8.80;;;17.10;98.50;;;;;;4993423;28;20050;-55
2021/08/06 08:02:32;;;;;;;12.52;9.05;;;17.20;98.80;;;;;;4996115;28;20049;-53
2021/08/06 08:04:57;;;;;;;10.13;8.18;;;17.20;98.70;;;;;;4996238;28;20117;-53
2021/08/06 08:07:23;;;;;;;13.30;9.40;;;17.20;98.70;;;;;;4992162;28;20141;-52
2021/08/06 08:09:49;;;;;;;12.40;8.90;;;17.20;98.70;;;;;;4992861;28;20034;-52
2021/08/06 08:12:15;;;;;;;10.45;8.45;;;17.20;98.70;;;;;;4993851;28;20109;-54
2021/08/06 08:14:40;;;;;;;10.48;7.72;;;17.30;99.10;;;;;;4997523;28;20491;-49
2021/08/06 08:17:11;;;;;;;11.40;8.63;;;17.40;99.10;;;;;;4999934;28;20034;-53
2021/08/06 08:19:37;;;;;;;9.68;7.88;;;17.40;98.80;;;;;;4979545;28;20039;-52
2021/08/06 08:22:03;;;;;;;10.38;7.93;;;17.40;98.80;;;;;;4991369;28;20053;-52
2021/08/06 08:24:29;;;;;;;10.27;7.93;;;17.40;98.70;;;;;;4999532;28;20402;-54
2021/08/06 08:26:54;;;;;;;8.98;6.97;;;17.40;98.70;;;;;;5000323;28;20046;-54
2021/08/06 08:29:20;;;;;;;10.75;7.45;;;17.50;98.70;;;;;;4995002;28;20049;-55
2021/08/06 08:31:46;;;;;;;10.10;7.68;;;17.50;98.70;;;;;;5001835;28;20109;-53
2021/08/06 08:34:12;;;;;;;10.48;8.00;;;17.50;98.70;;;;;;4960069;28;20149;-54
2021/08/06 08:36:38;;;;;;;8.80;7.28;;;17.50;98.70;;;;;;5001766;28;20117;-49
2021/08/06 08:39:05;;;;;;;7.95;6.55;;;17.50;98.70;;;;;;4999939;28;20491;-50
2021/08/06 08:41:31;;;;;;;9.93;6.45;;;17.60;98.70;;;;;;4981733;28;20050;-53
2021/08/06 08:43:57;;;;;;;7.03;6.03;;;17.60;98.60;;;;;;4974933;28;20414;-53
2021/08/06 08:46:27;;;;;;;7.18;5.85;;;17.60;98.60;;;;;;5004458;28;20091;-55
2021/08/06 08:48:57;;;;;;;6.55;5.55;;;17.60;98.60;;;;;;5002754;28;20046;-53
2021/08/06 08:51:25;;;;;;;8.52;4.75;;;17.60;98.60;;;;;;4990569;28;20042;-50
2021/08/06 08:53:53;;;;;;;5.43;4.20;;;17.60;98.60;;;;;;4981878;28;20046;-54
2021/08/06 08:56:19;;;;;;;6.85;4.65;;;17.60;98.40;;;;;;4972274;28;20402;-49
2021/08/06 08:58:44;;;;;;;5.22;4.05;;;17.60;98.50;;;;;;4998909;28;20045;-49
2021/08/06 09:01:10;;;;;;;5.35;4.40;;;17.70;98.50;;;;;;4999855;28;20049;-53
2021/08/06 09:03:46;;;;;;;7.32;4.85;;;17.70;98.50;;;;;;5007761;28;20542;-53
2021/08/06 09:06:11;;;;;;;6.82;4.43;;;17.80;98.60;;;;;;5007584;28;20112;-53
2021/08/06 09:08:38;;;;;;;4.53;3.58;;;17.90;98.60;;;;;;5008364;28;20133;-49
2021/08/06 09:11:30;;;;;;;5.10;3.03;;;18.00;98.50;;;;;;5010348;28;20041;-51
2021/08/06 09:14:15;;;;;;;4.57;3.40;;;18.10;98.20;;;;;;4999716;28;20422;-52
2021/08/06 09:16:55;;;;;;;4.75;3.80;;;18.30;98.30;;;;;;4967526;28;20056;-53
2021/08/06 09:19:21;;;;;;;4.55;3.55;;;18.50;98.20;;;;;;4987864;28;20410;-49
2021/08/06 09:21:47;;;;;;;3.92;3.10;;;18.70;98.00;;;;;;5005427;28;20030;-51
2021/08/06 09:24:13;;;;;;;4.68;3.28;;;18.80;97.70;;;;;;4994371;28;20125;-51
2021/08/06 09:26:42;;;;;;;5.82;3.30;;;18.80;97.40;;;;;;4982533;28;20443;-49
2021/08/06 09:29:10;;;;;;;4.97;2.70;;;18.80;96.90;;;;;;5006670;28;20077;-52
2021/08/06 09:31:41;;;;;;;3.97;2.63;;;18.80;95.90;;;;;;5000727;28;20121;-54
2021/08/06 09:34:23;;;;;;;3.45;2.90;;;18.80;96.10;;;;;;4992346;28;20164;-54
2021/08/06 09:37:01;;;;;;;4.38;3.10;;;18.90;95.80;;;;;;4990826;28;20109;-54
2021/08/06 09:39:34;;;;;;;4.50;3.70;;;18.90;95.90;;;;;;5002665;28;20061;-55
2021/08/06 09:41:59;;;;;;;3.90;3.15;;;18.90;95.30;;;;;;4982656;28;20084;-50
2021/08/06 09:44:28;;;;;;;4.80;3.67;;;19.00;95.20;;;;;;5007434;28;20037;-50
2021/08/06 09:46:54;;;;;;;5.10;3.40;;;19.00;95.30;;;;;;5004572;28;20054;-49
2021/08/06 09:49:20;;;;;;;6.35;3.72;;;19.10;95.60;;;;;;4999911;28;20087;-52
2021/08/06 09:51:51;;;;;;;6.55;3.97;;;19.10;95.40;;;;;;4997690;28;20093;-55
2021/08/06 09:54:28;;;;;;;7.15;4.40;;;19.10;95.40;;;;;;5006754;28;20498;-51
2021/08/06 09:57:04;;;;;;;6.53;4.40;;;19.30;95.60;;;;;;4982404;28;20037;-51
2021/08/06 09:59:33;;;;;;;6.25;4.45;;;19.50;95.40;;;;;;5003825;28;20108;-50
2021/08/06 10:02:16;;;;;;;7.32;4.80;;;19.60;95.10;;;;;;5001033;28;20117;-52
2021/08/06 10:04:59;;;;;;;6.07;4.22;;;19.70;94.80;;;;;;4983924;28;20038;-51
2021/08/06 10:07:26;;;;;;;5.85;4.50;;;19.80;94.70;;;;;;5005250;28;20124;-54
2021/08/06 10:09:52;;;;;;;6.55;5.05;;;19.80;94.70;;;;;;5001309;28;20042;-51
2021/08/06 10:12:18;;;;;;;7.13;5.57;;;19.90;94.40;;;;;;4998656;28;20411;-48
2021/08/06 10:14:44;;;;;;;6.47;5.32;;;19.90;94.40;;;;;;5003101;28;20034;-50
2021/08/06 10:17:10;;;;;;;7.45;5.65;;;20.00;94.40;;;;;;5005455;28;20038;-50
2021/08/06 10:19:36;;;;;;;7.80;5.10;;;20.00;94.20;;;;;;4973763;28;20052;-53
2021/08/06 10:22:03;;;;;;;8.25;5.55;;;20.10;93.90;;;;;;5000005;28;20633;-52
2021/08/06 10:24:30;;;;;;;8.70;5.97;;;20.30;93.80;;;;;;5007588;28;20038;-55
2021/08/06 10:26:56;;;;;;;7.70;5.70;;;20.40;92.70;;;;;;4999302;28;20046;-55
2021/08/06 10:29:22;;;;;;;8.82;6.13;;;20.60;92.80;;;;;;5007799;28;20643;-55
2021/08/06 10:32:07;;;;;;;8.00;5.45;;;20.60;92.40;;;;;;4984680;28;20064;-56
2021/08/06 10:34:33;;;;;;;7.25;4.07;;;20.80;91.70;;;;;;5006223;28;20504;-55
2021/08/06 10:36:58;;;;;;;7.00;4.47;;;20.90;91.10;;;;;;4999172;28;20044;-55
2021/08/06 10:39:30;;;;;;;7.32;4.32;;;21.00;90.20;;;;;;5000979;28;20054;-54
2021/08/06 10:41:56;;;;;;;7.13;3.90;;;21.10;88.00;;;;;;4996969;28;20045;-55
2021/08/06 10:44:22;;;;;;;9.82;5.07;;;21.10;88.30;;;;;;5001888;28;20034;-55
2021/08/06 10:46:57;;;;;;;6.43;4.82;;;21.10;87.50;;;;;;5001390;28;20052;-55
2021/08/06 10:49:26;;;;;;;6.38;4.45;;;21.10;87.60;;;;;;5007102;28;20407;-55
2021/08/06 10:52:10;;;;;;;7.47;4.95;;;21.10;87.30;;;;;;4995416;28;20041;-53
2021/08/06 10:54:36;;;;;;;9.27;5.20;;;21.20;86.50;;;;;;5004962;28;20561;-54
2021/08/06 10:57:26;;;;;;;7.80;4.30;;;21.20;86.80;;;;;;5009249;28;20038;-55
2021/08/06 10:59:53;;;;;;;7.38;4.88;;;21.30;84.90;;;;;;4999854;28;20047;-56
2021/08/06 11:02:33;;;;;;;7.45;4.70;;;21.30;85.40;;;;;;5000781;28;20077;-50
2021/08/06 11:05:00;;;;;;;7.88;5.32;;;21.30;86.40;;;;;;4994360;28;20035;-53
2021/08/06 11:07:34;;;;;;;6.80;5.28;;;21.20;86.80;;;;;;5002859;28;20053;-54
2021/08/06 11:10:01;;;;;;;9.70;5.97;;;21.10;86.50;;;;;;4982811;28;20042;-55
2021/08/06 11:12:36;;;;;;;10.65;5.72;;;21.00;86.90;;;;;;4982953;28;20050;-54
2021/08/06 11:15:05;;;;;;;7.45;5.38;;;20.90;87.00;;;;;;4974806;28;20038;-54
2021/08/06 11:17:46;;;;;;;8.65;5.03;;;20.80;87.40;;;;;;4951599;28;20061;-53
2021/08/06 11:20:19;;;;;;;8.98;5.80;;;20.90;87.80;;;;;;4967353;28;20057;-53
2021/08/06 11:22:50;;;;;;;12.15;5.90;;;21.00;87.60;;;;;;4999064;28;20042;-55
2021/08/06 11:25:25;;;;;;;8.05;5.45;;;21.20;88.40;;;;;;4972251;28;20042;-53
2021/08/06 11:28:00;;;;;;;9.27;5.20;;;21.40;88.30;;;;;;4997374;28;20038;-55
2021/08/06 11:30:35;;;;;;;6.32;4.53;;;21.50;86.70;;;;;;5003602;28;20491;-54
2021/08/06 11:33:09;;;;;;;7.05;4.63;;;21.50;85.00;;;;;;4981724;28;20041;-53
2021/08/06 11:35:40;;;;;;;6.95;5.22;;;21.40;84.90;;;;;;5003932;28;20471;-54
2021/08/06 11:38:11;;;;;;;6.97;4.88;;;21.30;85.50;;;;;;5004069;28;20038;-54
2021/08/06 11:40:47;;;;;;;8.03;5.20;;;21.20;85.60;;;;;;5006898;28;20050;-52
2021/08/06 11:43:14;;;;;;;10.05;5.30;;;21.10;85.20;;;;;;4999644;28;20045;-54
2021/08/06 11:45:41;;;;;;;6.63;5.03;;;21.10;85.40;;;;;;4995268;28;20430;-54
2021/08/06 11:48:07;;;;;;;7.18;5.85;;;21.00;85.90;;;;;;4999021;28;20041;-54
2021/08/06 11:50:42;;;;;;;6.88;5.45;;;21.00;86.50;;;;;;5000705;28;20471;-52
2021/08/06 11:53:19;;;;;;;7.60;5.22;;;21.00;86.90;;;;;;4999738;28;20096;-53
2021/08/06 11:55:47;;;;;;;8.40;5.50;;;20.80;86.20;;;;;;5004501;28;20042;-54
2021/08/06 11:58:15;;;;;;;7.43;4.57;;;20.80;86.70;;;;;;4999184;28;20438;-55
2021/08/06 12:00:44;;;;;;;7.22;4.57;;;20.70;85.90;;;;;;4998335;28;20062;-55
2021/08/06 12:03:13;;;;;;;6.15;4.63;;;20.70;85.40;;;;;;4979336;28;20507;-56
2021/08/06 12:05:41;;;;;;;6.20;4.28;;;20.60;85.90;;;;;;5000764;28;20483;-55
2021/08/06 12:08:23;;;;;;;5.68;4.90;;;20.60;86.10;;;;;;4994944;28;20046;-56
2021/08/06 12:10:54;;;;;;;;;;;20.60;86.30;;;;;;4976706;28;20046;-52
2021/08/06 12:13:23;;;;;;;7.40;4.40;;;20.60;86.80;;;;;;4988543;28;19918;-54
2021/08/06 12:16:07;;;;;;;7.85;4.63;;;20.60;86.90;;;;;;4985479;28;20088;-55
2021/08/06 12:18:35;;;;;;;6.25;4.60;;;20.60;86.00;;;;;;4993457;28;20149;-53
2021/08/06 12:21:04;;;;;;;5.82;4.32;;;20.60;86.30;;;;;;5006652;28;20038;-54
2021/08/06 12:23:29;;;;;;;6.72;4.45;;;20.50;86.20;;;;;;5006371;28;20042;-55
2021/08/06 12:26:03;;;;;;;7.05;3.97;;;20.60;85.70;;;;;;5001723;28;20046;-51
2021/08/06 12:28:30;;;;;;;6.03;4.40;;;20.60;85.60;;;;;;4966895;28;20514;-54
2021/08/06 12:31:16;;;;;;;6.78;4.20;;;20.60;85.70;;;;;;5004612;28;20069;-54
2021/08/06 12:33:44;;;;;;;9.70;4.15;;;20.50;85.70;;;;;;5005185;28;20037;-55
2021/08/06 12:36:19;;;;;;;5.07;3.40;;;20.50;86.00;;;;;;4991764;28;20056;-55
2021/08/06 12:38:49;;;;;;;6.88;3.63;;;20.50;84.60;;;;;;5012366;28;20045;-55
2021/08/06 12:41:42;;;;;;;6.85;4.00;;;20.40;84.70;;;;;;5009161;28;20046;-51